Time,TemperatureF,DewpointF,PressureIn,WindDirection,WindDirectionDegrees,WindSpeedMPH,WindSpeedGustMPH,Humidity,HourlyPrecipIn,Conditions,Clouds,dailyrainin,SoftwareType,DateUTC
2013-01-10 00:05:00,31.6,30.0,30.51,North,351,0.0,0.0,95,0.00,,,0.00,weatherlink.com 1.10,2013-01-10 05:05:00,
2013-01-10 00:20:00,31.5,30.0,30.50,North,351,0.0,0.0,95,0.00,,,0.00,weatherlink.com 1.10,2013-01-10 05:20:00,
2013-01-10 00:46:00,31.3,30.0,30.50,North,351,0.0,2.0,95,0.00,,,0.00,weatherlink.com 1.10,2013-01-10 05:46:00,
2013-01-10 01:05:00,31.1,30.0,30.49,North,351,0.0,0.0,95,0.00,,,0.00,weatherlink.com 1.10,2013-01-10 06:05:00,
2013-01-10 01:20:00,31.4,30.0,30.49,North,351,0.0,0.0,96,0.00,,,0.00,weatherlink.com 1.10,2013-01-10 06:20:00,
2013-01-10 01:35:00,31.3,30.0,30.49,North,351,0.0,0.0,95,0.00,,,0.00,weatherlink.com 1.10,2013-01-10 06:35:00,
2013-01-10 01:50:00,31.2,30.0,30.50,North,351,0.0,0.0,96,0.00,,,0.00,weatherlink.com 1.10,2013-01-10 06:50:00,
2013-01-10 02:05:00,31.3,30.0,30.50,North,351,0.0,0.0,96,0.00,,,0.00,weatherlink.com 1.10,2013-01-10 07:05:00,
2013-01-10 02:20:00,31.0,30.0,30.49,North,351,0.0,0.0,96,0.00,,,0.00,weatherlink.com 1.10,2013-01-10 07:20:00,
2013-01-10 02:35:00,31.0,30.0,30.49,North,355,0.0,2.0,96,0.00,,,0.00,weatherlink.com 1.10,2013-01-10 07:35:00,
2013-01-10 02:50:00,31.1,30.0,30.50,North,355,0.0,0.0,96,0.00,,,0.00,weatherlink.com 1.10,2013-01-10 07:50:00,
2013-01-10 03:05:00,31.2,30.0,30.49,North,355,0.0,0.0,96,0.00,,,0.00,weatherlink.com 1.10,2013-01-10 08:05:00,
2013-01-10 03:20:00,31.2,30.0,30.48,North,355,0.0,2.0,96,0.00,,,0.00,weatherlink.com 1.10,2013-01-10 08:20:00,
2013-01-10 03:35:00,31.7,31.0,30.49,North,355,0.0,0.0,96,0.00,,,0.00,weatherlink.com 1.10,2013-01-10 08:35:00,
2013-01-10 03:50:00,32.0,31.0,30.48,North,355,0.0,0.0,97,0.00,,,0.00,weatherlink.com 1.10,2013-01-10 08:50:00,
2013-01-10 04:05:00,32.0,31.0,30.47,North,355,0.0,0.0,96,0.00,,,0.00,weatherlink.com 1.10,2013-01-10 09:05:00,
2013-01-10 04:20:00,32.1,31.0,30.46,North,355,0.0,2.0,96,0.00,,,0.00,weatherlink.com 1.10,2013-01-10 09:20:00,
2013-01-10 04:35:00,32.3,31.0,30.45,North,355,1.0,3.0,96,0.00,,,0.00,weatherlink.com 1.10,2013-01-10 09:35:00,
2013-01-10 04:50:00,32.9,32.0,30.45,NNW,347,0.0,4.0,97,0.00,,,0.00,weatherlink.com 1.10,2013-01-10 09:50:00,
2013-01-10 05:05:00,33.8,33.0,30.45,NNE,13,1.0,3.0,97,0.00,,,0.00,weatherlink.com 1.10,2013-01-10 10:05:00,
2013-01-10 05:20:00,34.5,34.0,30.44,NNE,13,3.0,7.0,96,0.00,,,0.00,weatherlink.com 1.10,2013-01-10 10:20:00,
2013-01-10 05:35:00,35.8,34.0,30.44,NNE,12,0.0,4.0,92,0.00,,,0.00,weatherlink.com 1.10,2013-01-10 10:35:00,
2013-01-10 05:50:00,36.1,34.0,30.44,North,355,1.0,4.0,91,0.00,,,0.00,weatherlink.com 1.10,2013-01-10 10:50:00,
2013-01-10 06:05:00,36.2,34.0,30.44,North,360,1.0,3.0,90,0.00,,,0.00,weatherlink.com 1.10,2013-01-10 11:05:00,
2013-01-10 06:20:00,36.5,34.0,30.44,North,360,2.0,4.0,89,0.00,,,0.00,weatherlink.com 1.10,2013-01-10 11:20:00,
2013-01-10 06:35:00,37.1,34.0,30.44,North,360,2.0,5.0,87,0.00,,,0.00,weatherlink.com 1.10,2013-01-10 11:35:00,
2013-01-10 06:50:00,37.9,34.0,30.43,North,5,1.0,5.0,84,0.00,,,0.00,weatherlink.com 1.10,2013-01-10 11:50:00,
2013-01-10 07:05:00,38.5,33.0,30.43,North,11,3.0,7.0,82,0.00,,,0.00,weatherlink.com 1.10,2013-01-10 12:05:00,
2013-01-10 07:20:00,39.7,34.0,30.43,North,11,2.0,6.0,79,0.00,,,0.00,weatherlink.com 1.10,2013-01-10 12:20:00,
2013-01-10 07:35:00,40.2,34.0,30.43,North,360,3.0,9.0,77,0.00,,,0.00,weatherlink.com 1.10,2013-01-10 12:35:00,
2013-01-10 07:51:00,40.2,34.0,30.42,NNE,30,8.0,8.0,77,0.00,,,0.00,weatherlink.com 1.10,2013-01-10 12:51:00,
2013-01-10 08:06:00,40.2,34.0,30.41,North,360,3.0,7.0,78,0.00,,,0.00,weatherlink.com 1.10,2013-01-10 13:06:00,
2013-01-10 08:21:00,40.4,34.0,30.41,NNE,19,4.0,8.0,77,0.00,,,0.00,weatherlink.com 1.10,2013-01-10 13:21:00,
2013-01-10 08:36:00,40.7,34.0,30.41,NNE,17,3.0,8.0,77,0.00,,,0.00,weatherlink.com 1.10,2013-01-10 13:36:00,
2013-01-10 08:51:00,41.1,34.0,30.40,ENE,60,1.0,9.0,75,0.00,,,0.00,weatherlink.com 1.10,2013-01-10 13:51:00,
2013-01-10 09:06:00,41.6,34.0,30.41,ENE,74,5.0,8.0,73,0.00,,,0.00,weatherlink.com 1.10,2013-01-10 14:06:00,
2013-01-10 09:21:00,42.0,33.0,30.40,NE,45,1.0,7.0,70,0.00,,,0.00,weatherlink.com 1.10,2013-01-10 14:21:00,
2013-01-10 09:36:00,42.3,33.0,30.41,ENE,77,8.0,8.0,70,0.00,,,0.00,weatherlink.com 1.10,2013-01-10 14:36:00,
2013-01-10 09:51:00,42.8,33.0,30.40,East,90,5.0,7.0,68,0.00,,,0.00,weatherlink.com 1.10,2013-01-10 14:51:00,
2013-01-10 10:06:00,43.3,33.0,30.39,East,93,5.0,7.0,68,0.00,,,0.00,weatherlink.com 1.10,2013-01-10 15:06:00,
2013-01-10 10:21:00,43.7,34.0,30.39,ESE,106,3.0,9.0,70,0.00,,,0.00,weatherlink.com 1.10,2013-01-10 15:21:00,
2013-01-10 10:36:00,44.1,35.0,30.39,ENE,71,1.0,5.0,70,0.00,,,0.00,weatherlink.com 1.10,2013-01-10 15:36:00,
2013-01-10 10:51:00,44.3,36.0,30.39,SE,138,1.0,6.0,72,0.00,,,0.00,weatherlink.com 1.10,2013-01-10 15:51:00,
2013-01-10 11:06:00,44.6,37.0,30.40,ENE,67,3.0,7.0,74,0.00,,,0.00,weatherlink.com 1.10,2013-01-10 16:06:00,
2013-01-10 11:21:00,44.5,38.0,30.39,ENE,74,5.0,7.0,78,0.01,,,0.01,weatherlink.com 1.10,2013-01-10 16:21:00,
2013-01-10 11:36:00,43.7,39.0,30.38,North,11,2.0,6.0,83,0.04,,,0.04,weatherlink.com 1.10,2013-01-10 16:36:00,
2013-01-10 11:51:00,42.6,39.0,30.35,NE,55,4.0,10.0,87,0.06,,,0.06,weatherlink.com 1.10,2013-01-10 16:51:00,
2013-01-10 12:06:00,42.2,39.0,30.34,NE,51,3.0,6.0,89,0.07,,,0.07,weatherlink.com 1.10,2013-01-10 17:06:00,
2013-01-10 12:21:00,42.3,40.0,30.34,NNE,30,2.0,6.0,90,0.06,,,0.07,weatherlink.com 1.10,2013-01-10 17:21:00,
2013-01-10 12:36:00,42.4,40.0,30.32,NNE,14,4.0,7.0,90,0.04,,,0.08,weatherlink.com 1.10,2013-01-10 17:36:00,
2013-01-10 12:51:00,42.4,40.0,30.31,NNE,20,3.0,5.0,92,0.05,,,0.11,weatherlink.com 1.10,2013-01-10 17:51:00,
2013-01-10 13:06:00,42.4,40.0,30.30,NNE,28,1.0,8.0,92,0.08,,,0.15,weatherlink.com 1.10,2013-01-10 18:06:00,
2013-01-10 13:21:00,42.4,41.0,30.29,East,96,3.0,9.0,93,0.13,,,0.20,weatherlink.com 1.10,2013-01-10 18:21:00,
2013-01-10 13:36:00,42.4,41.0,30.28,NNE,19,2.0,8.0,94,0.22,,,0.30,weatherlink.com 1.10,2013-01-10 18:36:00,
2013-01-10 13:51:00,42.6,41.0,30.27,East,85,5.0,7.0,95,0.20,,,0.31,weatherlink.com 1.10,2013-01-10 18:51:00,
2013-01-10 14:06:00,43.0,42.0,30.25,NE,56,5.0,8.0,95,0.15,,,0.31,weatherlink.com 1.10,2013-01-10 19:06:00,
2013-01-10 14:21:00,43.6,42.0,30.25,East,88,2.0,10.0,95,0.11,,,0.31,weatherlink.com 1.10,2013-01-10 19:21:00,
2013-01-10 14:37:00,44.0,43.0,30.25,NE,49,5.0,11.0,95,0.01,,,0.31,weatherlink.com 1.10,2013-01-10 19:37:00,
2013-01-10 14:52:00,44.3,43.0,30.23,East,86,2.0,9.0,95,0.00,,,0.31,weatherlink.com 1.10,2013-01-10 19:52:00,
2013-01-10 15:07:00,44.6,43.0,30.23,ENE,74,5.0,7.0,95,0.00,,,0.31,weatherlink.com 1.10,2013-01-10 20:07:00,
2013-01-10 15:22:00,44.9,44.0,30.23,ENE,67,0.0,5.0,95,0.00,,,0.31,weatherlink.com 1.10,2013-01-10 20:22:00,
2013-01-10 15:37:00,45.2,44.0,30.23,ESE,118,1.0,8.0,95,0.00,,,0.31,weatherlink.com 1.10,2013-01-10 20:37:00,
2013-01-10 15:52:00,45.5,44.0,30.22,NE,39,1.0,7.0,95,0.00,,,0.31,weatherlink.com 1.10,2013-01-10 20:52:00,
2013-01-10 16:07:00,46.0,45.0,30.21,ENE,74,2.0,5.0,95,0.00,,,0.31,weatherlink.com 1.10,2013-01-10 21:07:00,
2013-01-10 16:22:00,46.3,45.0,30.21,East,86,2.0,7.0,95,0.00,,,0.31,weatherlink.com 1.10,2013-01-10 21:22:00,
2013-01-10 16:37:00,46.7,45.0,30.20,East,90,0.0,5.0,94,0.00,,,0.31,weatherlink.com 1.10,2013-01-10 21:37:00,
2013-01-10 16:52:00,46.9,46.0,30.20,East,101,0.0,3.0,95,0.00,,,0.31,weatherlink.com 1.10,2013-01-10 21:52:00,
2013-01-10 17:07:00,47.1,46.0,30.19,East,90,1.0,7.0,94,0.00,,,0.31,weatherlink.com 1.10,2013-01-10 22:07:00,
2013-01-10 17:22:00,47.3,46.0,30.18,SE,128,5.0,6.0,95,0.00,,,0.31,weatherlink.com 1.10,2013-01-10 22:22:00,
2013-01-10 17:37:00,47.7,46.0,30.17,East,84,2.0,8.0,95,0.00,,,0.31,weatherlink.com 1.10,2013-01-10 22:37:00,
2013-01-10 17:52:00,47.9,47.0,30.17,SE,130,3.0,8.0,95,0.00,,,0.31,weatherlink.com 1.10,2013-01-10 22:52:00,
2013-01-10 18:22:00,48.4,47.0,30.15,ENE,59,3.0,8.0,95,0.01,,,0.32,weatherlink.com 1.10,2013-01-10 23:22:00,
2013-01-10 18:37:00,48.4,47.0,30.14,ESE,117,5.0,5.0,95,0.01,,,0.32,weatherlink.com 1.10,2013-01-10 23:37:00,
2013-01-10 18:52:00,48.7,48.0,30.14,NNE,14,4.0,5.0,96,0.01,,,0.32,weatherlink.com 1.10,2013-01-10 23:52:00,
2013-01-10 19:07:00,49.0,48.0,30.13,ESE,117,5.0,8.0,95,0.01,,,0.32,weatherlink.com 1.10,2013-01-11 00:07:00,
2013-01-10 19:22:00,49.1,48.0,30.12,East,80,1.0,6.0,95,0.00,,,0.32,weatherlink.com 1.10,2013-01-11 00:22:00,
2013-01-10 19:37:00,49.2,48.0,30.12,ENE,58,0.0,6.0,95,0.00,,,0.32,weatherlink.com 1.10,2013-01-11 00:37:00,
2013-01-10 19:52:00,49.1,48.0,30.11,South,171,1.0,4.0,95,0.00,,,0.32,weatherlink.com 1.10,2013-01-11 00:52:00,
2013-01-10 20:07:00,49.1,48.0,30.10,East,79,0.0,4.0,95,0.00,,,0.32,weatherlink.com 1.10,2013-01-11 01:07:00,
2013-01-10 20:37:00,49.6,48.0,30.08,ESE,107,2.0,6.0,95,0.00,,,0.32,weatherlink.com 1.10,2013-01-11 01:37:00,
2013-01-10 20:52:00,49.9,49.0,30.07,SSE,164,1.0,7.0,95,0.00,,,0.32,weatherlink.com 1.10,2013-01-11 01:52:00,
2013-01-10 21:07:00,50.4,49.0,30.07,West,262,0.0,4.0,94,0.00,,,0.32,weatherlink.com 1.10,2013-01-11 02:07:00,
2013-01-10 21:22:00,51.2,50.0,30.07,SE,146,7.0,9.0,94,0.00,,,0.32,weatherlink.com 1.10,2013-01-11 02:22:00,
2013-01-10 21:37:00,51.5,50.0,30.07,North,360,2.0,3.0,93,0.00,,,0.32,weatherlink.com 1.10,2013-01-11 02:37:00,
2013-01-10 21:52:00,51.3,50.0,30.07,ENE,76,0.0,2.0,94,0.00,,,0.32,weatherlink.com 1.10,2013-01-11 02:52:00,
2013-01-10 22:07:00,51.2,50.0,30.06,ESE,117,0.0,5.0,94,0.00,,,0.32,weatherlink.com 1.10,2013-01-11 03:07:00,
2013-01-10 22:23:00,51.2,50.0,30.05,East,84,3.0,7.0,94,0.00,,,0.32,weatherlink.com 1.10,2013-01-11 03:23:00,
2013-01-10 22:38:00,51.3,50.0,30.03,East,80,2.0,4.0,94,0.00,,,0.32,weatherlink.com 1.10,2013-01-11 03:38:00,
2013-01-10 22:53:00,51.4,50.0,30.03,ENE,64,3.0,5.0,94,0.00,,,0.32,weatherlink.com 1.10,2013-01-11 03:53:00,
2013-01-10 23:08:00,51.7,50.0,30.02,SE,138,1.0,7.0,94,0.00,,,0.32,weatherlink.com 1.10,2013-01-11 04:08:00,
2013-01-10 23:23:00,52.3,51.0,30.01,ESE,109,3.0,7.0,94,0.00,,,0.32,weatherlink.com 1.10,2013-01-11 04:23:00,
2013-01-10 23:38:00,53.0,51.0,30.02,South,172,0.0,5.0,92,0.00,,,0.32,weatherlink.com 1.10,2013-01-11 04:38:00,
2013-01-10 23:53:00,53.0,51.0,30.02,SE,139,1.0,4.0,92,0.00,,,0.32,weatherlink.com 1.10,2013-01-11 04:53:00,